Time;durP1;ratioP1;P1;durP2;ratioP2;P2;SDS_P1;SDS_P2;PMS_P1;PMS_P2;Temp;Humidity;BMP_temperature;BMP_pressure;BME280_temperature;BME280_humidity;BME280_pressure;Samples;Min_cycle;Max_cycle;Signal;HPM_P1;HPM_P2
2021/03/21 00:01:42;;;;;;;2.53;1.80;;;;;;;;;;5025830;28;20189;-71
2021/03/21 00:04:10;;;;;;;2.23;1.90;;;;;;;;;;5035232;28;20754;-71
2021/03/21 00:06:36;;;;;;;2.73;1.97;;;;;;;;;;5029001;28;20242;-71
2021/03/21 00:09:01;;;;;;;5.13;2.00;;;;;;;;;;5036061;28;20677;-71
2021/03/21 00:11:27;;;;;;;2.80;2.03;;;;;;;;;;5025460;28;20659;-71
2021/03/21 00:13:52;;;;;;;2.50;1.87;;;;;;;;;;5038375;28;20200;-71
2021/03/21 00:16:18;;;;;;;2.67;2.23;;;;;;;;;;5035220;28;20216;-71
2021/03/21 00:18:44;;;;;;;4.27;2.23;;;;;;;;;;5030333;28;20178;-71
2021/03/21 00:21:11;;;;;;;3.00;2.10;;;;;;;;;;5031696;28;20178;-71
2021/03/21 00:23:37;;;;;;;4.43;2.20;;;;;;;;;;5028503;28;20634;-72
2021/03/21 00:26:04;;;;;;;3.77;2.57;;;;;;;;;;5037371;28;20257;-71
2021/03/21 00:28:31;;;;;;;3.80;2.30;;;;;;;;;;5029517;28;20677;-71
2021/03/21 00:30:57;;;;;;;3.37;2.47;;;;;;;;;;5039635;28;20193;-71
2021/03/21 00:33:26;;;;;;;4.23;3.53;;;;;;;;;;5029202;28;20198;-71
2021/03/21 00:35:52;;;;;;;5.10;3.13;;;;;;;;;;5037461;28;20617;-72
2021/03/21 00:38:22;;;;;;;3.57;2.90;;;;;;;;;;5024836;28;20193;-71
2021/03/21 00:40:48;;;;;;;4.43;2.70;;;;;;;;;;5036112;28;20650;-71
2021/03/21 00:43:13;;;;;;;7.67;3.13;;;;;;;;;;5026374;28;20217;-72
2021/03/21 00:45:40;;;;;;;3.50;2.60;;;;;;;;;;5039786;28;20233;-71
2021/03/21 00:48:11;;;;;;;6.00;3.20;;;;;;;;;;5046410;28;20201;-71
2021/03/21 00:50:37;;;;;;;4.27;3.10;;;;;;;;;;5031849;28;20190;-71
2021/03/21 00:53:02;;;;;;;4.97;2.93;;;;;;;;;;5040213;28;20216;-71
2021/03/21 00:55:28;;;;;;;5.47;3.60;;;;;;;;;;5033581;28;20217;-71
2021/03/21 00:57:53;;;;;;;4.60;3.10;;;;;;;;;;5040584;28;20194;-71
2021/03/21 01:00:27;;;;;;;3.70;3.27;;;;;;;;;;5034201;28;20192;-71
2021/03/21 01:02:53;;;;;;;5.60;3.13;;;;;;;;;;5035226;28;20606;-71
2021/03/21 01:05:29;;;;;;;5.30;3.20;;;;;;;;;;5029863;28;20280;-71
2021/03/21 01:07:55;;;;;;;5.30;3.77;;;;;;;;;;5037377;28;20212;-71
2021/03/21 01:10:30;;;;;;;5.93;4.00;;;;;;;;;;5036290;28;20189;-71
2021/03/21 01:12:58;;;;;;;5.40;3.50;;;;;;;;;;5044795;28;20182;-71
2021/03/21 01:15:25;;;;;;;5.50;3.90;;;;;;;;;;5029303;28;20224;-71
2021/03/21 01:17:52;;;;;;;5.33;4.50;;;;;;;;;;5036069;28;20185;-71
2021/03/21 01:20:19;;;;;;;5.13;4.00;;;;;;;;;;5034349;28;20204;-71
2021/03/21 01:22:46;;;;;;;6.60;4.30;;;;;;;;;;5042093;28;20657;-71
2021/03/21 01:25:12;;;;;;;5.80;4.63;;;;;;;;;;5033019;28;20193;-71
2021/03/21 01:27:37;;;;;;;7.57;5.47;;;;;;;;;;5040656;28;20259;-71
2021/03/21 01:30:05;;;;;;;8.03;5.73;;;;;;;;;;5035119;28;20182;-71
2021/03/21 01:32:30;;;;;;;7.70;5.90;;;;;;;;;;5030219;28;20602;-71
2021/03/21 01:34:56;;;;;;;11.67;6.90;;;;;;;;;;5040220;28;20265;-72
2021/03/21 01:37:21;;;;;;;10.47;6.97;;;;;;;;;;5028642;28;20212;-71
2021/03/21 01:39:46;;;;;;;11.23;7.70;;;;;;;;;;5039016;28;20237;-73
2021/03/21 01:42:14;;;;;;;9.43;7.80;;;;;;;;;;5030241;28;20335;-71
2021/03/21 01:44:39;;;;;;;10.27;7.17;;;;;;;;;;5041013;28;20229;-71
2021/03/21 01:47:24;;;;;;;10.33;7.20;;;;;;;;;;5032985;28;20680;-71
2021/03/21 01:49:50;;;;;;;10.83;7.70;;;;;;;;;;5040944;28;20648;-71
2021/03/21 01:52:47;;;;;;;10.53;7.67;;;;;;;;;;5030115;28;20184;-71
2021/03/21 01:55:13;;;;;;;10.97;8.30;;;;;;;;;;5024439;28;20197;-71
2021/03/21 01:57:39;;;;;;;10.67;8.67;;;;;;;;;;5019808;28;20236;-71
2021/03/21 02:00:09;;;;;;;12.33;8.43;;;;;;;;;;5043424;28;20177;-71
2021/03/21 02:02:34;;;;;;;11.03;8.77;;;;;;;;;;5028702;28;20653;-71
2021/03/21 02:05:00;;;;;;;13.30;9.53;;;;;;;;;;5042324;28;20255;-71
2021/03/21 02:07:46;;;;;;;12.93;9.33;;;;;;;;;;5030725;28;20177;-71
2021/03/21 02:10:35;;;;;;;13.47;9.80;;;;;;;;;;5038893;28;20185;-71
2021/03/21 02:13:29;;;;;;;12.97;10.20;;;;;;;;;;5026019;28;20233;-72
2021/03/21 02:16:09;;;;;;;15.00;10.80;;;;;;;;;;5041210;28;20201;-71
2021/03/21 02:18:46;;;;;;;11.70;9.60;;;;;;;;;;5030706;28;20186;-71
2021/03/21 02:21:27;;;;;;;16.47;11.57;;;;;;;;;;5038372;28;20551;-71
2021/03/21 02:24:07;;;;;;;15.17;11.47;;;;;;;;;;5030291;28;20641;-71
2021/03/21 02:27:04;;;;;;;16.03;11.53;;;;;;;;;;5030599;28;20189;-71
2021/03/21 02:29:47;;;;;;;14.40;10.93;;;;;;;;;;5030645;28;20293;-72
2021/03/21 02:32:21;;;;;;;15.93;11.97;;;;;;;;;;5036183;28;20182;-72
2021/03/21 02:35:02;;;;;;;17.43;11.73;;;;;;;;;;5035891;28;20276;-72
2021/03/21 02:37:44;;;;;;;18.80;13.10;;;;;;;;;;5041353;28;20216;-71
2021/03/21 02:40:26;;;;;;;18.43;13.53;;;;;;;;;;5024931;28;20650;-71
2021/03/21 02:43:03;;;;;;;16.03;12.27;;;;;;;;;;5036906;28;20653;-70
2021/03/21 02:45:31;;;;;;;18.67;12.53;;;;;;;;;;5027385;28;20228;-70
2021/03/21 02:48:08;;;;;;;17.67;12.30;;;;;;;;;;5036920;28;20212;-70
2021/03/21 02:50:39;;;;;;;17.60;12.90;;;;;;;;;;5034308;28;20213;-70
2021/03/21 02:53:13;;;;;;;21.47;14.40;;;;;;;;;;5034735;28;20194;-70
2021/03/21 02:55:41;;;;;;;17.47;13.70;;;;;;;;;;5031476;28;20180;-70
2021/03/21 02:58:13;;;;;;;18.93;13.80;;;;;;;;;;5036096;28;20213;-70
2021/03/21 03:00:46;;;;;;;20.60;13.70;;;;;;;;;;5029399;28;20307;-71
2021/03/21 03:03:16;;;;;;;20.93;13.57;;;;;;;;;;5038458;28;20272;-71
2021/03/21 03:05:50;;;;;;;19.33;13.50;;;;;;;;;;5032628;28;20598;-70
2021/03/21 03:08:43;;;;;;;18.40;13.43;;;;;;;;;;5034475;28;20297;-71
2021/03/21 03:11:18;;;;;;;20.60;13.50;;;;;;;;;;5022576;28;20245;-71
2021/03/21 03:13:47;;;;;;;19.20;14.43;;;;;;;;;;5039768;28;20189;-71
2021/03/21 03:16:23;;;;;;;19.77;14.43;;;;;;;;;;5027970;28;20184;-70
2021/03/21 03:19:23;;;;;;;18.50;14.13;;;;;;;;;;5038108;28;20213;-70
2021/03/21 03:21:54;;;;;;;20.17;13.83;;;;;;;;;;5032587;28;20181;-70
2021/03/21 03:24:34;;;;;;;17.37;12.63;;;;;;;;;;5038501;28;20653;-70
2021/03/21 03:27:07;;;;;;;19.40;13.33;;;;;;;;;;5034041;28;20194;-71
2021/03/21 03:29:43;;;;;;;19.40;13.13;;;;;;;;;;5035831;28;20202;-71
2021/03/21 03:32:13;;;;;;;17.93;13.20;;;;;;;;;;5028155;28;20773;-70
2021/03/21 03:34:44;;;;;;;16.67;12.30;;;;;;;;;;5042934;28;20656;-72
2021/03/21 03:37:11;;;;;;;17.53;11.23;;;;;;;;;;5030775;28;20185;-72
2021/03/21 03:39:38;;;;;;;17.57;10.93;;;;;;;;;;5040520;28;20194;-71
2021/03/21 03:42:36;;;;;;;17.43;10.47;;;;;;;;;;5035943;28;20216;-71
2021/03/21 03:45:22;;;;;;;14.07;9.37;;;;;;;;;;5001252;28;20694;-71
2021/03/21 03:48:08;;;;;;;13.17;8.70;;;;;;;;;;5034507;28;20225;-71
2021/03/21 03:51:08;;;;;;;12.93;9.13;;;;;;;;;;5042553;28;20185;-71
2021/03/21 03:54:41;;;;;;;14.93;8.53;;;;;;;;;;5033381;28;20277;-71
2021/03/21 03:57:24;;;;;;;15.30;8.57;;;;;;;;;;5006434;28;20506;-71
2021/03/21 04:00:20;;;;;;;15.83;9.10;;;;;;;;;;5013166;28;20257;-71
2021/03/21 04:03:04;;;;;;;15.63;8.20;;;;;;;;;;5037903;28;20738;-71
2021/03/21 04:05:35;;;;;;;10.97;7.13;;;;;;;;;;5033130;28;20197;-71
2021/03/21 04:08:31;;;;;;;13.53;7.17;;;;;;;;;;5036907;28;20206;-71
2021/03/21 04:11:08;;;;;;;15.83;7.03;;;;;;;;;;5038123;28;20236;-71
2021/03/21 04:13:41;;;;;;;10.70;6.40;;;;;;;;;;5028208;28;20185;-71
2021/03/21 04:16:09;;;;;;;22.27;6.43;;;;;;;;;;5041667;28;20654;-71
2021/03/21 04:18:47;;;;;;;12.43;6.03;;;;;;;;;;5039519;28;20209;-71
2021/03/21 04:21:45;;;;;;;15.53;6.97;;;;;;;;;;5040320;28;20652;-71
2021/03/21 04:24:18;;;;;;;14.43;5.53;;;;;;;;;;5033335;28;20184;-71
2021/03/21 04:26:53;;;;;;;11.53;6.07;;;;;;;;;;5043282;28;20189;-71
2021/03/21 04:29:42;;;;;;;13.07;7.03;;;;;;;;;;5036934;28;20646;-71
2021/03/21 04:32:18;;;;;;;14.00;6.20;;;;;;;;;;5038713;28;20273;-71
2021/03/21 04:34:47;;;;;;;15.07;6.27;;;;;;;;;;5033202;28;20574;-72
2021/03/21 04:37:14;;;;;;;13.57;6.83;;;;;;;;;;5041141;28;20236;-72
2021/03/21 04:39:42;;;;;;;14.27;6.23;;;;;;;;;;5033393;28;20623;-71
2021/03/21 04:42:09;;;;;;;21.60;6.30;;;;;;;;;;5033345;28;20201;-71
2021/03/21 04:44:42;;;;;;;14.50;6.40;;;;;;;;;;5039609;28;20553;-72
2021/03/21 04:47:21;;;;;;;17.73;6.30;;;;;;;;;;5030093;28;20193;-72
2021/03/21 04:49:47;;;;;;;14.37;6.47;;;;;;;;;;5037678;28;20258;-71
2021/03/21 04:52:18;;;;;;;17.47;7.57;;;;;;;;;;5032848;28;20724;-71
2021/03/21 04:54:47;;;;;;;12.33;5.80;;;;;;;;;;5029830;28;20182;-72
2021/03/21 04:57:40;;;;;;;16.40;6.07;;;;;;;;;;5024189;28;20251;-71
2021/03/21 05:00:32;;;;;;;15.43;5.67;;;;;;;;;;5031246;28;20177;-71
2021/03/21 05:03:11;;;;;;;14.70;5.80;;;;;;;;;;5025790;28;20202;-72
2021/03/21 05:05:43;;;;;;;15.77;5.07;;;;;;;;;;5044055;28;20264;-71
2021/03/21 05:08:45;;;;;;;16.37;6.53;;;;;;;;;;5027194;28;20254;-70
2021/03/21 05:11:11;;;;;;;19.70;6.07;;;;;;;;;;5034150;28;20235;-70
2021/03/21 05:13:58;;;;;;;19.87;5.47;;;;;;;;;;5026483;28;20283;-70
2021/03/21 05:16:31;;;;;;;13.17;5.77;;;;;;;;;;5040143;28;20197;-71
2021/03/21 05:19:02;;;;;;;20.93;5.83;;;;;;;;;;5026948;28;20621;-70
2021/03/21 05:21:41;;;;;;;18.53;5.57;;;;;;;;;;5045197;28;20203;-70
2021/03/21 05:24:27;;;;;;;18.83;5.50;;;;;;;;;;5025076;28;20612;-71
2021/03/21 05:27:20;;;;;;;15.93;5.67;;;;;;;;;;5036303;28;20285;-70
2021/03/21 05:30:07;;;;;;;14.47;4.33;;;;;;;;;;5028900;28;20240;-70
2021/03/21 05:32:32;;;;;;;13.90;3.93;;;;;;;;;;5028672;28;20189;-70
2021/03/21 05:34:59;;;;;;;15.53;3.97;;;;;;;;;;5040007;28;20189;-70
2021/03/21 05:37:37;;;;;;;13.33;4.13;;;;;;;;;;5031852;28;20510;-70
2021/03/21 05:40:02;;;;;;;16.03;3.03;;;;;;;;;;5032462;28;20192;-70
2021/03/21 05:43:01;;;;;;;11.07;3.13;;;;;;;;;;5033901;28;20594;-70
2021/03/21 05:46:04;;;;;;;14.93;3.27;;;;;;;;;;5033068;28;20406;-70
2021/03/21 05:49:00;;;;;;;15.57;3.20;;;;;;;;;;5022571;28;20198;-70
2021/03/21 05:51:58;;;;;;;10.63;2.87;;;;;;;;;;5033988;28;20185;-70
2021/03/21 05:54:53;;;;;;;14.73;3.53;;;;;;;;;;5029510;28;20192;-70
2021/03/21 05:57:49;;;;;;;16.43;3.20;;;;;;;;;;5037099;28;20193;-70
2021/03/21 06:00:26;;;;;;;10.10;3.00;;;;;;;;;;5027565;28;20189;-70
2021/03/21 06:03:10;;;;;;;10.80;2.97;;;;;;;;;;5036699;28;20180;-70
2021/03/21 06:06:12;;;;;;;10.70;3.00;;;;;;;;;;5028713;28;20186;-70
2021/03/21 06:09:01;;;;;;;7.33;2.37;;;;;;;;;;4341038;28;10000739;-70
2021/03/21 06:11:38;;;;;;;10.07;2.30;;;;;;;;;;5024232;28;20495;-70
2021/03/21 06:14:34;;;;;;;16.00;2.40;;;;;;;;;;5036598;28;20192;-70
2021/03/21 06:17:27;;;;;;;13.20;2.00;;;;;;;;;;5031118;28;20652;-70
2021/03/21 06:20:11;;;;;;;15.23;2.47;;;;;;;;;;5027712;28;20662;-70
2021/03/21 06:23:15;;;;;;;10.60;2.00;;;;;;;;;;5031328;28;20189;-70
2021/03/21 06:26:02;;;;;;;12.10;1.70;;;;;;;;;;5030124;28;20312;-70
2021/03/21 06:28:34;;;;;;;11.40;2.10;;;;;;;;;;5030135;28;20268;-70
2021/03/21 06:31:32;;;;;;;12.03;2.33;;;;;;;;;;5026290;28;20220;-70
2021/03/21 06:34:11;;;;;;;11.90;1.40;;;;;;;;;;5033395;28;20192;-70
2021/03/21 06:36:43;;;;;;;14.23;1.70;;;;;;;;;;5027283;28;20231;-70
2021/03/21 06:39:34;;;;;;;16.03;2.00;;;;;;;;;;5033684;28;20185;-70
2021/03/21 06:42:25;;;;;;;13.37;1.90;;;;;;;;;;5028114;28;20208;-70
2021/03/21 06:45:35;;;;;;;9.93;1.30;;;;;;;;;;5035531;28;20617;-70
2021/03/21 06:48:30;;;;;;;12.90;2.17;;;;;;;;;;4990883;28;20358;-72
2021/03/21 06:51:03;;;;;;;9.27;1.27;;;;;;;;;;4995432;28;20194;-72
2021/03/21 06:53:41;;;;;;;13.47;1.87;;;;;;;;;;5011646;28;20244;-72
2021/03/21 06:56:46;;;;;;;16.00;1.80;;;;;;;;;;5031580;28;20649;-71
2021/03/21 06:59:44;;;;;;;9.53;2.20;;;;;;;;;;5013387;28;20197;-72
2021/03/21 07:02:46;;;;;;;18.97;2.13;;;;;;;;;;5026346;28;20205;-72
2021/03/21 07:05:36;;;;;;;10.13;2.23;;;;;;;;;;5038630;28;20233;-72
2021/03/21 07:08:23;;;;;;;9.87;1.60;;;;;;;;;;5018794;28;20263;-72
2021/03/21 07:11:15;;;;;;;19.27;3.00;;;;;;;;;;5030473;28;20689;-72
2021/03/21 07:14:18;;;;;;;11.43;1.40;;;;;;;;;;5023573;28;20714;-72
2021/03/21 07:17:02;;;;;;;15.93;2.23;;;;;;;;;;5032113;28;20243;-71
2021/03/21 07:19:50;;;;;;;14.83;2.53;;;;;;;;;;5028558;28;20574;-71
2021/03/21 07:22:59;;;;;;;12.73;2.50;;;;;;;;;;5035583;28;20197;-71
2021/03/21 07:25:58;;;;;;;12.07;2.07;;;;;;;;;;5041451;28;20217;-72
2021/03/21 07:28:59;;;;;;;16.97;2.83;;;;;;;;;;5028350;28;20209;-72
2021/03/21 07:31:55;;;;;;;16.53;2.17;;;;;;;;;;5034195;28;20197;-71
2021/03/21 07:34:54;;;;;;;18.03;2.53;;;;;;;;;;5025041;28;20705;-72
2021/03/21 07:38:02;;;;;;;15.17;2.40;;;;;;;;;;5032948;28;21081;-73
2021/03/21 07:40:48;;;;;;;17.13;2.27;;;;;;;;;;5026984;28;20199;-71
2021/03/21 07:43:26;;;;;;;21.63;2.73;;;;;;;;;;5028452;28;20182;-71
2021/03/21 07:46:30;;;;;;;21.37;2.77;;;;;;;;;;5025931;28;20256;-71
2021/03/21 07:49:14;;;;;;;18.50;2.63;;;;;;;;;;5036192;28;20235;-70
2021/03/21 07:52:03;;;;;;;26.30;3.10;;;;;;;;;;5028574;28;20196;-69
2021/03/21 07:54:37;;;;;;;19.57;3.20;;;;;;;;;;5030482;28;20188;-69
2021/03/21 07:57:14;;;;;;;28.70;3.73;;;;;;;;;;5023357;28;20197;-69
2021/03/21 07:59:41;;;;;;;22.40;2.77;;;;;;;;;;5029843;28;20261;-70
2021/03/21 08:02:25;;;;;;;23.63;3.10;;;;;;;;;;5025030;28;20193;-70
2021/03/21 08:04:56;;;;;;;27.93;3.37;;;;;;;;;;5031166;28;20217;-69
2021/03/21 08:07:33;;;;;;;29.93;3.50;;;;;;;;;;5016831;28;20201;-70
2021/03/21 08:10:00;;;;;;;27.27;3.57;;;;;;;;;;5034906;28;20563;-70
2021/03/21 08:12:40;;;;;;;29.60;3.80;;;;;;;;;;5023294;28;20249;-69
2021/03/21 08:15:20;;;;;;;27.10;3.80;;;;;;;;;;5028647;28;20200;-69
2021/03/21 08:18:00;;;;;;;29.83;4.27;;;;;;;;;;5021412;28;20189;-70
2021/03/21 08:20:37;;;;;;;39.37;4.77;;;;;;;;;;5031913;28;20229;-70
2021/03/21 08:23:12;;;;;;;28.30;3.93;;;;;;;;;;5018841;28;20217;-70
2021/03/21 08:25:38;;;;;;;23.73;4.07;;;;;;;;;;5031177;28;20200;-69
2021/03/21 08:28:04;;;;;;;27.17;4.00;;;;;;;;;;5021525;28;20198;-70
2021/03/21 08:30:50;;;;;;;33.37;4.07;;;;;;;;;;5036567;28;20211;-70
2021/03/21 08:33:27;;;;;;;26.53;4.07;;;;;;;;;;5020825;28;20197;-70
2021/03/21 08:36:17;;;;;;;25.53;4.00;;;;;;;;;;5031682;28;20193;-69
2021/03/21 08:39:13;;;;;;;22.53;3.73;;;;;;;;;;5026734;28;20198;-69
2021/03/21 08:41:57;;;;;;;31.30;4.73;;;;;;;;;;5032120;28;20201;-69
2021/03/21 08:44:31;;;;;;;30.43;4.10;;;;;;;;;;5022863;28;20329;-70
2021/03/21 08:46:58;;;;;;;29.30;4.00;;;;;;;;;;5029892;28;20207;-69
2021/03/21 08:49:27;;;;;;;30.93;3.93;;;;;;;;;;5015499;28;20205;-70
2021/03/21 08:51:53;;;;;;;25.33;4.00;;;;;;;;;;5027222;28;20616;-68
2021/03/21 08:54:22;;;;;;;26.70;4.60;;;;;;;;;;5025676;28;20277;-69
2021/03/21 08:57:26;;;;;;;30.80;4.10;;;;;;;;;;5032678;28;20666;-70
2021/03/21 08:59:52;;;;;;;30.47;4.37;;;;;;;;;;5021376;28;20223;-70
2021/03/21 09:02:19;;;;;;;41.50;5.10;;;;;;;;;;5035860;28;20629;-69
2021/03/21 09:05:01;;;;;;;27.43;4.73;;;;;;;;;;5025398;28;20916;-71
2021/03/21 09:07:36;;;;;;;27.23;4.07;;;;;;;;;;5025475;28;20693;-69
2021/03/21 09:10:13;;;;;;;33.70;4.70;;;;;;;;;;5024118;28;20285;-70
2021/03/21 09:12:40;;;;;;;30.80;4.10;;;;;;;;;;5029729;28;20926;-70
2021/03/21 09:15:28;;;;;;;23.97;3.77;;;;;;;;;;5021268;28;20194;-69
2021/03/21 09:18:22;;;;;;;33.57;4.50;;;;;;;;;;5029864;28;20209;-70
2021/03/21 09:20:57;;;;;;;33.03;6.23;;;;;;;;;;5020617;28;20199;-69
2021/03/21 09:23:51;;;;;;;32.97;3.83;;;;;;;;;;5035457;28;20187;-70
2021/03/21 09:26:17;;;;;;;22.53;3.83;;;;;;;;;;5018062;28;20506;-69
2021/03/21 09:28:48;;;;;;;32.03;4.03;;;;;;;;;;5036200;28;20220;-69
2021/03/21 09:31:14;;;;;;;28.97;4.93;;;;;;;;;;5024860;28;20725;-69
2021/03/21 09:33:49;;;;;;;33.40;5.05;;;;;;;;;;5040537;28;20283;-68
2021/03/21 09:36:24;;;;;;;39.55;5.10;;;;;;;;;;5031475;28;20203;-69
2021/03/21 09:38:52;;;;;;;35.70;4.43;;;;;;;;;;5036188;28;20193;-69
2021/03/21 09:41:17;;;;;;;31.73;4.07;;;;;;;;;;5029123;28;20201;-69
2021/03/21 09:43:48;;;;;;;28.27;4.13;;;;;;;;;;5035694;28;20705;-68
2021/03/21 09:46:21;;;;;;;27.23;4.57;;;;;;;;;;5028575;28;20206;-69
2021/03/21 09:49:06;;;;;;;35.80;4.73;;;;;;;;;;5035755;28;20201;-69
2021/03/21 09:51:46;;;;;;;28.17;4.97;;;;;;;;;;5026696;28;20590;-69
2021/03/21 09:54:20;;;;;;;24.52;3.78;;;;;;;;;;5040010;28;20188;-69
2021/03/21 09:57:04;;;;;;;29.57;4.57;;;;;;;;;;5028302;28;20243;-69
2021/03/21 09:59:47;;;;;;;27.43;4.57;;;;;;;;;;5032590;28;20237;-69
2021/03/21 10:02:23;;;;;;;28.00;4.60;;;;;;;;;;5032942;28;20751;-69
2021/03/21 10:05:00;;;;;;;32.27;5.07;;;;;;;;;;5037910;28;20668;-71
2021/03/21 10:07:33;;;;;;;33.73;4.67;;;;;;;;;;5031853;28;20189;-69
2021/03/21 10:10:01;;;;;;;26.53;5.30;;;;;;;;;;5033223;28;20309;-69
2021/03/21 10:12:27;;;;;;;35.53;5.47;;;;;;;;;;5032601;28;20193;-69
2021/03/21 10:15:00;;;;;;;29.15;4.20;;;;;;;;;;5036539;28;20178;-69
2021/03/21 10:17:25;;;;;;;27.37;4.47;;;;;;;;;;5029872;28;20201;-69
2021/03/21 10:19:53;;;;;;;37.63;4.90;;;;;;;;;;5030343;28;20189;-70
2021/03/21 10:22:25;;;;;;;28.75;4.55;;;;;;;;;;5036748;28;20181;-69
2021/03/21 10:24:58;;;;;;;32.53;4.90;;;;;;;;;;5036569;28;20196;-69
2021/03/21 10:27:35;;;;;;;33.60;4.75;;;;;;;;;;5030196;28;20217;-69
2021/03/21 10:30:22;;;;;;;30.63;4.90;;;;;;;;;;5023892;28;20184;-69
2021/03/21 10:32:58;;;;;;;27.27;4.40;;;;;;;;;;5037552;28;20300;-69
2021/03/21 10:35:29;;;;;;;32.93;5.03;;;;;;;;;;5030203;28;20190;-69
2021/03/21 10:38:06;;;;;;;29.27;4.27;;;;;;;;;;5038763;28;20227;-69
2021/03/21 10:40:32;;;;;;;23.10;5.00;;;;;;;;;;5030732;28;20181;-70
2021/03/21 10:43:01;;;;;;;32.13;4.77;;;;;;;;;;5037057;28;20551;-70
2021/03/21 10:45:33;;;;;;;28.83;3.97;;;;;;;;;;5033805;28;20304;-70
2021/03/21 10:48:00;;;;;;;34.15;5.78;;;;;;;;;;5038238;28;20201;-70
2021/03/21 10:50:28;;;;;;;32.73;4.50;;;;;;;;;;5027635;28;20223;-70
2021/03/21 10:53:24;;;;;;;33.47;4.67;;;;;;;;;;5037220;28;20193;-70
2021/03/21 10:56:00;;;;;;;32.47;4.87;;;;;;;;;;5028922;28;20217;-70
2021/03/21 10:58:40;;;;;;;29.55;4.70;;;;;;;;;;5040318;28;20174;-70
2021/03/21 11:01:15;;;;;;;31.00;5.50;;;;;;;;;;5028291;28;20280;-70
2021/03/21 11:03:41;;;;;;;24.67;4.60;;;;;;;;;;5045717;28;20204;-70
2021/03/21 11:06:15;;;;;;;32.83;4.53;;;;;;;;;;5031556;28;20189;-70
2021/03/21 11:08:40;;;;;;;31.50;5.57;;;;;;;;;;5041986;28;20247;-70
2021/03/21 11:11:24;;;;;;;29.13;4.60;;;;;;;;;;5029232;28;20182;-69
2021/03/21 11:13:52;;;;;;;25.10;3.87;;;;;;;;;;5041911;28;20675;-69
2021/03/21 11:16:21;;;;;;;25.17;3.80;;;;;;;;;;5030248;28;20182;-69
2021/03/21 11:19:01;;;;;;;30.80;4.43;;;;;;;;;;5041845;28;20193;-70
2021/03/21 11:21:32;;;;;;;27.97;3.97;;;;;;;;;;5029420;28;20198;-70
2021/03/21 11:24:06;;;;;;;28.80;4.97;;;;;;;;;;5039780;28;20188;-70
2021/03/21 11:26:38;;;;;;;23.17;4.43;;;;;;;;;;5028884;28;21307;-70
2021/03/21 11:29:06;;;;;;;28.97;4.67;;;;;;;;;;5034015;28;20300;-70
2021/03/21 11:31:36;;;;;;;30.90;4.80;;;;;;;;;;5025694;28;20193;-70
2021/03/21 11:34:25;;;;;;;37.00;4.97;;;;;;;;;;5039193;28;20186;-70
2021/03/21 11:37:05;;;;;;;30.83;4.93;;;;;;;;;;5031226;28;20189;-70
2021/03/21 11:39:30;;;;;;;25.37;4.87;;;;;;;;;;5037409;28;20190;-69
2021/03/21 11:41:55;;;;;;;31.07;5.40;;;;;;;;;;5030628;28;20181;-69
2021/03/21 11:44:30;;;;;;;28.03;5.10;;;;;;;;;;5041900;28;20283;-69
2021/03/21 11:47:11;;;;;;;33.47;4.93;;;;;;;;;;5038671;28;20287;-69
2021/03/21 11:49:37;;;;;;;34.00;4.80;;;;;;;;;;5044298;28;20277;-69
2021/03/21 11:52:04;;;;;;;32.90;6.63;;;;;;;;;;5032922;28;20832;-69
2021/03/21 11:54:33;;;;;;;32.40;4.90;;;;;;;;;;5041124;28;20189;-69
2021/03/21 11:57:06;;;;;;;29.50;4.77;;;;;;;;;;5040651;28;20178;-69
2021/03/21 11:59:47;;;;;;;31.95;5.05;;;;;;;;;;5036738;28;20178;-69
2021/03/21 12:02:30;;;;;;;35.17;5.17;;;;;;;;;;5038513;28;20194;-69
2021/03/21 12:04:58;;;;;;;27.07;5.00;;;;;;;;;;5048734;28;20205;-69
2021/03/21 12:07:26;;;;;;;38.13;5.33;;;;;;;;;;5043195;28;20208;-69
2021/03/21 12:09:52;;;;;;;32.67;4.90;;;;;;;;;;5034167;28;20198;-69
2021/03/21 12:12:31;;;;;;;31.43;5.33;;;;;;;;;;5043687;28;21060;-69
2021/03/21 12:14:57;;;;;;;32.27;5.87;;;;;;;;;;5033931;28;20185;-69
2021/03/21 12:17:23;;;;;;;28.73;5.10;;;;;;;;;;5036901;28;20200;-69
2021/03/21 12:19:49;;;;;;;26.47;5.27;;;;;;;;;;5035580;28;20197;-69
2021/03/21 12:22:36;;;;;;;34.42;5.32;;;;;;;;;;5045803;28;20644;-69
2021/03/21 12:25:19;;;;;;;41.08;5.50;;;;;;;;;;5032370;28;20671;-69
2021/03/21 12:27:46;;;;;;;23.15;4.50;;;;;;;;;;5037257;28;20606;-69
2021/03/21 12:30:28;;;;;;;25.57;4.73;;;;;;;;;;5027086;28;20377;-69
2021/03/21 12:33:12;;;;;;;29.33;5.07;;;;;;;;;;5034763;28;20536;-68
2021/03/21 12:35:40;;;;;;;26.63;5.00;;;;;;;;;;5027352;28;20184;-69
2021/03/21 12:38:12;;;;;;;32.00;4.30;;;;;;;;;;5039266;28;20174;-69
2021/03/21 12:40:43;;;;;;;31.33;5.97;;;;;;;;;;5030322;28;20193;-68
2021/03/21 12:43:28;;;;;;;25.15;4.65;;;;;;;;;;5035112;28;20186;-69
2021/03/21 12:46:03;;;;;;;28.93;4.60;;;;;;;;;;5024983;28;20300;-69
2021/03/21 12:48:29;;;;;;;29.00;5.05;;;;;;;;;;5033692;28;20224;-69
2021/03/21 12:50:56;;;;;;;24.30;4.80;;;;;;;;;;5027136;28;20206;-69
2021/03/21 12:53:31;;;;;;;26.60;4.78;;;;;;;;;;5033858;28;20213;-69
2021/03/21 12:56:02;;;;;;;30.55;5.63;;;;;;;;;;5021594;28;20277;-69
2021/03/21 12:58:28;;;;;;;31.88;4.70;;;;;;;;;;5034761;28;20185;-69
2021/03/21 13:00:54;;;;;;;23.92;4.22;;;;;;;;;;5024731;28;20566;-68
2021/03/21 13:03:32;;;;;;;26.45;4.53;;;;;;;;;;5033915;28;20273;-69
2021/03/21 13:05:58;;;;;;;34.80;5.07;;;;;;;;;;4674304;28;10000465;-69
2021/03/21 13:08:25;;;;;;;30.02;4.82;;;;;;;;;;5032239;28;20784;-69
2021/03/21 13:10:51;;;;;;;34.72;5.90;;;;;;;;;;5024030;28;20189;-69
2021/03/21 13:13:17;;;;;;;33.13;5.88;;;;;;;;;;5031495;28;20194;-69
2021/03/21 13:15:43;;;;;;;38.53;4.88;;;;;;;;;;5026052;28;20190;-69
2021/03/21 13:18:09;;;;;;;35.97;6.15;;;;;;;;;;5019363;28;20185;-74
2021/03/21 13:20:34;;;;;;;34.67;5.10;;;;;;;;;;5032971;28;20186;-69
2021/03/21 13:23:00;;;;;;;27.05;4.35;;;;;;;;;;5017726;28;20190;-69
2021/03/21 13:25:31;;;;;;;22.63;3.70;;;;;;;;;;5031369;28;20232;-69
2021/03/21 13:27:59;;;;;;;28.90;4.83;;;;;;;;;;5024848;28;20218;-70
2021/03/21 13:30:30;;;;;;;22.97;4.10;;;;;;;;;;5025965;28;20828;-70
2021/03/21 13:32:57;;;;;;;25.63;4.57;;;;;;;;;;5025458;28;20231;-70
2021/03/21 13:35:25;;;;;;;22.63;4.03;;;;;;;;;;5029788;28;20190;-70
2021/03/21 13:37:51;;;;;;;27.17;4.10;;;;;;;;;;5019864;28;20877;-70
2021/03/21 13:40:21;;;;;;;24.67;4.37;;;;;;;;;;5028744;28;20711;-70
2021/03/21 13:42:47;;;;;;;24.20;4.10;;;;;;;;;;5020378;28;20637;-70
2021/03/21 13:45:13;;;;;;;30.00;4.17;;;;;;;;;;5029559;28;20225;-69
2021/03/21 13:47:39;;;;;;;24.80;4.10;;;;;;;;;;5023222;28;20209;-70
2021/03/21 13:50:06;;;;;;;27.37;4.17;;;;;;;;;;5029086;28;20273;-69
2021/03/21 13:52:32;;;;;;;26.57;4.03;;;;;;;;;;5024933;28;20190;-69
2021/03/21 13:54:57;;;;;;;25.45;3.90;;;;;;;;;;5022292;28;20478;-69
2021/03/21 13:57:22;;;;;;;22.40;4.17;;;;;;;;;;5034654;28;20260;-69
2021/03/21 13:59:48;;;;;;;21.10;4.23;;;;;;;;;;5024475;28;20212;-69
2021/03/21 14:02:13;;;;;;;24.93;4.33;;;;;;;;;;5036450;28;20224;-69
2021/03/21 14:04:39;;;;;;;25.03;4.40;;;;;;;;;;5025275;28;20205;-69
2021/03/21 14:07:04;;;;;;;26.97;4.97;;;;;;;;;;5039317;28;20288;-71
2021/03/21 14:09:30;;;;;;;18.13;3.22;;;;;;;;;;5030576;28;20985;-69
2021/03/21 14:11:55;;;;;;;27.83;4.22;;;;;;;;;;5030263;28;20654;-70
2021/03/21 14:14:20;;;;;;;22.00;4.47;;;;;;;;;;5026118;28;20233;-71
2021/03/21 14:16:46;;;;;;;31.15;4.38;;;;;;;;;;5027591;28;20186;-70
2021/03/21 14:19:13;;;;;;;28.90;4.43;;;;;;;;;;5017224;28;20225;-69
2021/03/21 14:21:39;;;;;;;29.10;4.75;;;;;;;;;;5026656;28;20216;-70
2021/03/21 14:24:04;;;;;;;20.38;3.72;;;;;;;;;;5029859;28;20189;-70
2021/03/21 14:26:30;;;;;;;28.65;4.30;;;;;;;;;;5013784;28;20189;-70
2021/03/21 14:28:55;;;;;;;22.52;3.50;;;;;;;;;;5027653;28;20627;-70
2021/03/21 14:31:21;;;;;;;22.20;3.40;;;;;;;;;;5018648;28;20186;-70
2021/03/21 14:33:47;;;;;;;31.15;4.57;;;;;;;;;;5029653;28;20663;-70
2021/03/21 14:36:12;;;;;;;23.60;4.45;;;;;;;;;;5022107;28;20194;-70
2021/03/21 14:38:38;;;;;;;22.15;4.43;;;;;;;;;;5031168;28;20198;-70
2021/03/21 14:41:04;;;;;;;26.63;4.90;;;;;;;;;;5023233;28;20193;-69
2021/03/21 14:43:29;;;;;;;28.63;4.10;;;;;;;;;;5031478;28;20645;-69
2021/03/21 14:45:55;;;;;;;26.03;4.13;;;;;;;;;;5021931;28;20225;-70
2021/03/21 14:48:21;;;;;;;24.20;3.95;;;;;;;;;;5031475;28;20204;-70
2021/03/21 14:50:47;;;;;;;28.45;4.30;;;;;;;;;;5025634;28;20194;-70
2021/03/21 14:53:14;;;;;;;27.17;4.93;;;;;;;;;;5030475;28;20187;-69
2021/03/21 14:55:44;;;;;;;19.85;3.55;;;;;;;;;;5028120;28;20240;-70
2021/03/21 14:58:20;;;;;;;25.23;4.33;;;;;;;;;;5020327;28;20566;-70
2021/03/21 15:00:45;;;;;;;27.40;5.75;;;;;;;;;;5028775;28;20912;-70
2021/03/21 15:03:11;;;;;;;26.00;5.50;;;;;;;;;;5019355;28;20392;-70
2021/03/21 15:05:37;;;;;;;31.02;4.40;;;;;;;;;;5028758;28;20677;-70
2021/03/21 15:08:03;;;;;;;28.00;4.30;;;;;;;;;;5019865;28;20221;-69
2021/03/21 15:10:31;;;;;;;26.33;4.55;;;;;;;;;;5031546;28;20218;-70
2021/03/21 15:12:59;;;;;;;30.88;4.35;;;;;;;;;;5019991;28;20194;-69
2021/03/21 15:15:37;;;;;;;27.40;3.88;;;;;;;;;;5028494;28;20194;-70
2021/03/21 15:18:03;;;;;;;19.58;3.67;;;;;;;;;;5020918;28;20192;-70
2021/03/21 15:20:34;;;;;;;31.03;4.17;;;;;;;;;;5032229;28;20190;-71